Time;durP1;ratioP1;P1;durP2;ratioP2;P2;SDS_P1;SDS_P2;PMS_P1;PMS_P2;Temp;Humidity;BMP_temperature;BMP_pressure;BME280_temperature;BME280_humidity;BME280_pressure;Samples;Min_cycle;Max_cycle;Signal;HPM_P1;HPM_P2
2021/08/21 00:01:46;;;;;;;2.80;2.00;;;24.80;58.20;;;;;;4993013;28;20445;-67
2021/08/21 00:04:15;;;;;;;3.10;2.25;;;24.80;57.90;;;;;;4992386;28;20422;-67
2021/08/21 00:06:41;;;;;;;2.90;2.20;;;24.80;57.90;;;;;;4992951;28;20394;-67
2021/08/21 00:09:07;;;;;;;3.05;2.50;;;24.80;57.90;;;;;;4993032;28;20394;-67
2021/08/21 00:11:33;;;;;;;2.67;2.20;;;24.80;58.00;;;;;;4992853;28;20802;-67
2021/08/21 00:13:58;;;;;;;2.90;2.30;;;24.80;58.00;;;;;;4993150;28;20863;-68
2021/08/21 00:16:24;;;;;;;2.83;2.20;;;24.80;58.00;;;;;;4992244;28;20529;-68
2021/08/21 00:18:49;;;;;;;3.70;2.25;;;24.80;58.00;;;;;;4992827;28;20390;-67
2021/08/21 00:21:16;;;;;;;2.33;2.00;;;24.80;58.00;;;;;;4992608;28;20396;-67
2021/08/21 00:23:42;;;;;;;2.63;2.10;;;24.80;58.00;;;;;;4992696;28;20890;-67
2021/08/21 00:26:08;;;;;;;2.95;2.35;;;24.80;58.00;;;;;;4992111;28;20406;-66
2021/08/21 00:28:35;;;;;;;3.27;2.50;;;24.70;58.00;;;;;;4992077;28;20462;-67
2021/08/21 00:31:01;;;;;;;2.92;2.33;;;24.70;58.00;;;;;;4992202;28;20934;-68
2021/08/21 00:33:26;;;;;;;2.80;2.27;;;24.70;58.00;;;;;;4992166;28;20402;-67
2021/08/21 00:35:52;;;;;;;2.97;2.20;;;24.70;58.00;;;;;;4991709;28;20407;-66
2021/08/21 00:38:17;;;;;;;3.17;2.20;;;24.70;58.10;;;;;;4991146;28;20386;-66
2021/08/21 00:40:43;;;;;;;2.60;2.10;;;24.70;58.10;;;;;;4991294;28;20398;-67
2021/08/21 00:43:10;;;;;;;2.63;2.00;;;24.70;58.00;;;;;;4989438;28;20907;-68
2021/08/21 00:45:36;;;;;;;3.03;2.30;;;24.70;58.20;;;;;;4991923;28;20428;-68
2021/08/21 00:48:02;;;;;;;3.50;2.30;;;24.70;58.10;;;;;;4991721;28;20391;-67
2021/08/21 00:50:28;;;;;;;2.97;2.47;;;24.70;57.20;;;;;;4991611;28;20945;-67
2021/08/21 00:52:54;;;;;;;3.22;2.45;;;24.70;57.70;;;;;;4989537;28;20398;-67
2021/08/21 00:55:20;;;;;;;3.20;2.20;;;24.70;57.80;;;;;;4991041;28;20406;-67
2021/08/21 00:57:46;;;;;;;2.92;2.10;;;24.70;58.00;;;;;;4991744;28;20394;-66
2021/08/21 01:00:13;;;;;;;3.10;2.20;;;24.70;58.10;;;;;;4991707;28;20779;-67
2021/08/21 01:02:40;;;;;;;3.35;2.20;;;24.70;58.30;;;;;;4991701;28;20391;-68
2021/08/21 01:05:08;;;;;;;3.17;2.20;;;24.70;58.20;;;;;;4989784;28;20454;-68
2021/08/21 01:07:36;;;;;;;2.80;2.38;;;24.70;58.30;;;;;;4991405;28;20774;-67
2021/08/21 01:10:16;;;;;;;3.40;2.17;;;24.70;58.30;;;;;;4991829;28;20442;-69
2021/08/21 01:12:49;;;;;;;2.97;2.05;;;24.70;58.30;;;;;;4989561;28;20391;-68
2021/08/21 01:15:16;;;;;;;2.53;2.10;;;24.60;58.30;;;;;;4991836;28;20933;-67
2021/08/21 01:17:43;;;;;;;3.23;2.30;;;24.60;58.20;;;;;;4991224;28;20422;-68
2021/08/21 01:20:09;;;;;;;3.05;2.40;;;24.60;58.20;;;;;;4991767;28;20489;-67
2021/08/21 01:22:37;;;;;;;3.10;2.20;;;24.60;58.20;;;;;;4991385;28;20901;-67
2021/08/21 01:25:15;;;;;;;3.15;2.30;;;24.60;58.30;;;;;;4991221;28;20484;-67
2021/08/21 01:27:41;;;;;;;3.45;2.50;;;24.60;58.30;;;;;;4992072;28;20437;-67
2021/08/21 01:30:09;;;;;;;3.60;2.45;;;24.60;58.30;;;;;;4991570;28;20398;-68
2021/08/21 01:32:35;;;;;;;3.35;2.30;;;24.60;58.30;;;;;;4989871;28;20771;-67
2021/08/21 01:35:01;;;;;;;3.42;2.40;;;24.60;58.30;;;;;;4991527;28;20406;-67
2021/08/21 01:37:27;;;;;;;3.80;2.30;;;24.60;58.50;;;;;;4990047;28;20758;-68
2021/08/21 01:39:55;;;;;;;2.70;2.10;;;24.60;58.40;;;;;;4991154;28;20413;-67
2021/08/21 01:42:22;;;;;;;2.90;2.33;;;24.60;58.40;;;;;;4991168;28;20452;-67
2021/08/21 01:44:48;;;;;;;2.70;2.10;;;24.60;58.50;;;;;;4991933;28;20505;-67
2021/08/21 01:47:17;;;;;;;2.50;2.08;;;24.60;58.40;;;;;;4991839;28;20893;-68
2021/08/21 01:49:50;;;;;;;2.88;2.22;;;24.60;58.50;;;;;;4991735;28;20406;-68
2021/08/21 01:52:15;;;;;;;3.70;2.22;;;24.60;58.40;;;;;;4991387;28;20398;-68
2021/08/21 01:54:41;;;;;;;3.47;2.60;;;24.50;58.50;;;;;;4991720;28;20398;-68
2021/08/21 01:57:07;;;;;;;2.83;2.17;;;24.50;58.50;;;;;;4991832;28;20422;-67
2021/08/21 01:59:33;;;;;;;3.05;2.28;;;24.50;58.50;;;;;;4991677;28;20398;-68
2021/08/21 02:02:00;;;;;;;2.95;2.25;;;24.50;58.40;;;;;;4991832;28;20933;-68
2021/08/21 02:04:27;;;;;;;2.78;2.22;;;24.50;58.50;;;;;;4990726;28;20481;-68
2021/08/21 02:06:53;;;;;;;2.67;2.13;;;24.50;58.50;;;;;;4991786;28;20394;-68
2021/08/21 02:09:22;;;;;;;2.75;2.17;;;24.50;58.50;;;;;;4992897;28;20399;-67
2021/08/21 02:11:50;;;;;;;2.50;2.20;;;24.50;59.10;;;;;;4995212;28;20483;-67
2021/08/21 02:14:18;;;;;;;4.00;2.47;;;24.50;58.50;;;;;;4994569;28;20406;-67
2021/08/21 02:16:46;;;;;;;2.40;2.20;;;24.50;58.50;;;;;;4995285;28;20399;-68
2021/08/21 02:19:12;;;;;;;3.10;2.50;;;24.50;58.60;;;;;;4995235;28;20453;-67
2021/08/21 02:21:38;;;;;;;2.65;2.20;;;24.50;58.50;;;;;;4995110;28;20762;-67
2021/08/21 02:24:05;;;;;;;2.67;2.20;;;24.50;58.60;;;;;;4994996;28;20429;-68
2021/08/21 02:26:36;;;;;;;3.42;2.47;;;24.50;58.50;;;;;;4993373;28;20403;-67
2021/08/21 02:29:02;;;;;;;3.40;2.22;;;24.40;58.40;;;;;;4994924;28;20529;-68
2021/08/21 02:31:28;;;;;;;2.72;2.38;;;24.40;58.40;;;;;;4994834;28;20863;-67
2021/08/21 02:33:54;;;;;;;2.73;2.13;;;24.40;58.40;;;;;;4994826;28;20443;-68
2021/08/21 02:36:20;;;;;;;2.92;2.33;;;24.40;58.50;;;;;;4994220;28;20387;-67
2021/08/21 02:38:46;;;;;;;2.85;2.00;;;24.40;58.50;;;;;;4994816;28;20395;-67
2021/08/21 02:41:13;;;;;;;2.88;2.30;;;24.40;58.40;;;;;;4994337;28;20875;-68
2021/08/21 02:43:39;;;;;;;2.45;2.22;;;24.40;58.50;;;;;;4994613;28;20755;-67
2021/08/21 02:46:05;;;;;;;2.80;2.10;;;24.40;58.50;;;;;;4994544;28;20467;-67
2021/08/21 02:48:31;;;;;;;3.50;2.30;;;24.40;58.50;;;;;;4993922;28;20401;-67
2021/08/21 02:50:56;;;;;;;2.58;2.15;;;24.40;58.50;;;;;;4993486;28;20473;-67
2021/08/21 02:53:22;;;;;;;3.33;2.17;;;24.40;58.50;;;;;;4992894;28;20395;-66
2021/08/21 02:55:48;;;;;;;2.67;2.27;;;24.40;59.10;;;;;;4994388;28;20430;-67
2021/08/21 02:58:14;;;;;;;2.80;2.28;;;24.30;58.40;;;;;;4992808;28;20395;-67
2021/08/21 03:00:41;;;;;;;3.15;2.20;;;24.30;58.40;;;;;;4994258;28;20478;-67
2021/08/21 03:03:08;;;;;;;2.55;1.92;;;24.30;58.40;;;;;;4992942;28;20410;-67
2021/08/21 03:05:35;;;;;;;2.70;2.30;;;24.30;58.40;;;;;;4992793;28;20763;-67
2021/08/21 03:08:02;;;;;;;4.85;2.28;;;24.30;58.40;;;;;;4994237;28;20386;-68
2021/08/21 03:10:28;;;;;;;3.10;2.23;;;24.30;58.40;;;;;;4993703;28;20763;-67
2021/08/21 03:12:55;;;;;;;2.95;2.35;;;24.30;58.50;;;;;;4993940;28;20415;-67
2021/08/21 03:15:21;;;;;;;3.03;2.47;;;24.30;58.40;;;;;;4994051;28;20398;-68
2021/08/21 03:17:47;;;;;;;3.92;2.40;;;24.30;58.40;;;;;;4994118;28;20402;-68
2021/08/21 03:20:13;;;;;;;3.10;2.30;;;24.30;58.40;;;;;;4991817;28;21015;-67
2021/08/21 03:22:39;;;;;;;2.60;2.20;;;24.30;58.50;;;;;;4993409;28;20401;-67
2021/08/21 03:25:05;;;;;;;3.42;2.35;;;24.30;58.50;;;;;;4993796;28;20952;-67
2021/08/21 03:27:32;;;;;;;3.25;2.10;;;24.30;58.40;;;;;;4993983;28;20391;-68
2021/08/21 03:29:57;;;;;;;2.90;2.40;;;24.30;58.50;;;;;;4993715;28;20405;-68
2021/08/21 03:32:23;;;;;;;3.55;2.40;;;24.30;58.40;;;;;;4991802;28;20763;-68
2021/08/21 03:34:51;;;;;;;3.00;2.40;;;24.30;58.50;;;;;;4993740;28;20414;-68
2021/08/21 03:37:17;;;;;;;2.60;2.20;;;24.30;58.50;;;;;;4993408;28;20382;-67
2021/08/21 03:39:44;;;;;;;2.60;2.05;;;24.30;58.40;;;;;;4993524;28;20770;-68
2021/08/21 03:42:09;;;;;;;3.63;2.20;;;24.30;58.50;;;;;;4991969;28;20521;-68
2021/08/21 03:44:35;;;;;;;3.17;2.50;;;24.20;58.50;;;;;;4993138;28;20907;-67
2021/08/21 03:47:01;;;;;;;3.38;2.33;;;24.20;58.40;;;;;;4993255;28;20397;-67
2021/08/21 03:49:27;;;;;;;2.75;2.15;;;24.20;58.40;;;;;;4991919;28;20386;-67
2021/08/21 03:51:53;;;;;;;2.85;2.40;;;24.20;58.50;;;;;;4993029;28;20460;-67
2021/08/21 03:54:19;;;;;;;2.63;2.20;;;24.20;58.50;;;;;;4991718;28;20394;-67
2021/08/21 03:56:45;;;;;;;2.88;2.20;;;24.20;58.50;;;;;;4992637;28;20391;-67
2021/08/21 03:59:11;;;;;;;2.90;2.30;;;24.20;58.40;;;;;;4993207;28;20398;-67
2021/08/21 04:01:37;;;;;;;2.80;2.33;;;24.20;58.50;;;;;;4993138;28;20394;-67
2021/08/21 04:04:03;;;;;;;2.70;2.35;;;24.20;58.40;;;;;;4992949;28;20625;-67
2021/08/21 04:06:29;;;;;;;2.80;2.35;;;24.20;58.50;;;;;;4992823;28;20395;-67
2021/08/21 04:08:55;;;;;;;2.72;2.28;;;24.20;58.70;;;;;;4993067;28;20394;-67
2021/08/21 04:11:21;;;;;;;3.20;2.58;;;24.20;58.40;;;;;;4992887;28;20457;-67
2021/08/21 04:13:47;;;;;;;2.83;2.08;;;24.20;58.40;;;;;;4992994;28;20386;-67
2021/08/21 04:16:13;;;;;;;3.03;2.22;;;24.20;58.40;;;;;;4992664;28;20464;-67
2021/08/21 04:18:39;;;;;;;2.77;2.23;;;24.10;58.50;;;;;;4992205;28;21464;-68
2021/08/21 04:21:05;;;;;;;3.20;2.33;;;24.20;58.40;;;;;;4991220;28;20409;-67
2021/08/21 04:23:31;;;;;;;3.00;2.30;;;24.10;58.30;;;;;;4992347;28;20394;-67
2021/08/21 04:26:00;;;;;;;2.53;2.00;;;24.10;58.50;;;;;;4992388;28;20406;-67
2021/08/21 04:28:30;;;;;;;3.15;2.08;;;24.10;58.40;;;;;;4991541;28;20477;-67
2021/08/21 04:30:56;;;;;;;2.80;2.20;;;24.10;58.30;;;;;;4990876;28;20430;-67
2021/08/21 04:33:22;;;;;;;2.80;2.30;;;24.10;58.30;;;;;;4991793;28;20401;-67
2021/08/21 04:35:48;;;;;;;2.70;2.10;;;24.10;58.40;;;;;;4992486;28;20390;-67
2021/08/21 04:38:15;;;;;;;2.47;2.10;;;24.10;58.40;;;;;;4991875;28;20379;-65
2021/08/21 04:40:41;;;;;;;3.08;2.30;;;24.10;58.40;;;;;;4991890;28;20421;-67
2021/08/21 04:43:07;;;;;;;2.78;2.17;;;24.10;58.40;;;;;;4991258;28;20630;-68
2021/08/21 04:45:32;;;;;;;2.45;2.20;;;24.10;58.40;;;;;;4991857;28;20430;-67
2021/08/21 04:47:58;;;;;;;3.08;2.38;;;24.10;58.40;;;;;;4992179;28;20387;-67
2021/08/21 04:50:25;;;;;;;2.70;2.13;;;24.10;58.40;;;;;;4991725;28;20402;-67
2021/08/21 04:52:51;;;;;;;2.85;2.13;;;24.10;58.30;;;;;;5023858;28;20736;-67
2021/08/21 04:55:17;;;;;;;3.00;2.10;;;24.10;58.50;;;;;;4991641;28;20404;-67
2021/08/21 04:57:42;;;;;;;2.90;2.33;;;24.10;58.40;;;;;;4991970;28;20398;-67
2021/08/21 05:00:09;;;;;;;3.00;2.20;;;24.10;58.30;;;;;;4991985;28;20398;-66
2021/08/21 05:02:35;;;;;;;2.53;2.20;;;24.10;58.40;;;;;;4991120;28;20425;-67
2021/08/21 05:05:01;;;;;;;3.03;2.30;;;24.10;58.40;;;;;;4991994;28;20954;-67
2021/08/21 05:07:26;;;;;;;3.10;2.50;;;24.10;58.40;;;;;;4991335;28;20449;-67
2021/08/21 05:09:52;;;;;;;3.05;2.15;;;24.10;58.30;;;;;;5022912;28;20807;-66
2021/08/21 05:12:18;;;;;;;2.37;2.07;;;24.10;58.40;;;;;;4991400;28;20398;-67
2021/08/21 05:14:44;;;;;;;3.00;2.17;;;24.00;58.30;;;;;;4991636;28;20399;-67
2021/08/21 05:17:10;;;;;;;2.63;2.20;;;24.00;58.30;;;;;;4991426;28;20418;-67
2021/08/21 05:19:43;;;;;;;3.00;2.20;;;24.10;58.50;;;;;;4991472;28;20402;-67
2021/08/21 05:22:28;;;;;;;2.75;2.00;;;24.00;58.50;;;;;;4991625;28;20418;-67
2021/08/21 05:24:55;;;;;;;2.72;2.30;;;24.10;58.40;;;;;;4990875;28;20489;-67
2021/08/21 05:27:22;;;;;;;2.70;2.05;;;24.10;58.50;;;;;;4991803;28;21091;-68
2021/08/21 05:29:49;;;;;;;2.80;2.30;;;24.10;58.40;;;;;;4992035;28;20406;-67
2021/08/21 05:32:15;;;;;;;2.60;2.17;;;24.00;58.30;;;;;;4992055;28;20859;-66
2021/08/21 05:34:41;;;;;;;3.30;2.10;;;24.10;58.40;;;;;;4991486;28;20906;-66
2021/08/21 05:37:07;;;;;;;2.72;2.15;;;24.00;58.60;;;;;;4991807;28;20390;-66
2021/08/21 05:39:33;;;;;;;2.67;2.30;;;24.00;58.60;;;;;;4992134;28;20453;-66
2021/08/21 05:42:00;;;;;;;2.70;2.20;;;24.00;58.10;;;;;;4991732;28;20402;-67
2021/08/21 05:44:27;;;;;;;3.28;2.30;;;24.00;57.50;;;;;;5024215;28;20846;-66
2021/08/21 05:46:53;;;;;;;3.05;2.10;;;23.90;57.50;;;;;;4995867;28;20395;-66
2021/08/21 05:49:19;;;;;;;3.38;2.38;;;24.00;58.00;;;;;;4995614;28;20763;-66
2021/08/21 05:51:46;;;;;;;3.77;2.10;;;23.90;58.00;;;;;;4995573;28;20527;-66
2021/08/21 05:54:11;;;;;;;2.97;2.30;;;24.00;57.60;;;;;;4995415;28;20395;-67
2021/08/21 05:56:37;;;;;;;2.83;2.25;;;24.00;58.50;;;;;;4994843;28;20401;-66
2021/08/21 05:59:03;;;;;;;3.17;2.15;;;24.00;58.60;;;;;;4995335;28;20402;-66
2021/08/21 06:01:29;;;;;;;3.15;2.30;;;24.00;58.30;;;;;;4995581;28;20398;-67
2021/08/21 06:03:56;;;;;;;2.97;2.25;;;24.00;58.00;;;;;;4995259;28;21045;-67
2021/08/21 06:06:24;;;;;;;4.93;2.00;;;24.00;58.20;;;;;;4995197;28;20407;-66
2021/08/21 06:08:50;;;;;;;4.90;2.35;;;24.00;58.30;;;;;;4994972;28;20395;-67
2021/08/21 06:11:16;;;;;;;3.28;2.20;;;24.00;58.50;;;;;;4995135;28;20545;-66
2021/08/21 06:13:42;;;;;;;3.10;1.92;;;24.00;58.70;;;;;;5026750;28;20537;-66
2021/08/21 06:16:08;;;;;;;4.25;2.40;;;24.00;58.80;;;;;;4995227;28;20410;-68
2021/08/21 06:18:34;;;;;;;2.88;2.25;;;24.00;58.80;;;;;;4994675;28;20466;-66
2021/08/21 06:21:00;;;;;;;3.38;2.30;;;24.10;59.10;;;;;;4995058;28;20399;-66
2021/08/21 06:23:26;;;;;;;3.77;2.20;;;24.10;59.10;;;;;;4995062;28;20465;-66
2021/08/21 06:25:52;;;;;;;3.20;2.10;;;24.10;59.00;;;;;;4994922;28;20430;-66
2021/08/21 06:28:18;;;;;;;3.22;2.20;;;24.10;59.20;;;;;;4994774;28;20409;-66
2021/08/21 06:30:44;;;;;;;3.00;2.20;;;24.10;59.50;;;;;;4994471;28;20398;-65
2021/08/21 06:33:10;;;;;;;3.70;2.22;;;24.10;59.40;;;;;;4994833;28;20401;-65
2021/08/21 06:35:36;;;;;;;3.30;2.28;;;24.10;59.70;;;;;;4994661;28;20422;-67
2021/08/21 06:38:02;;;;;;;3.50;2.30;;;24.20;59.60;;;;;;4993277;28;20401;-66
2021/08/21 06:40:28;;;;;;;3.28;2.10;;;24.20;59.70;;;;;;4992926;28;20489;-66
2021/08/21 06:42:54;;;;;;;3.13;2.50;;;24.20;59.40;;;;;;4993888;28;20446;-66
2021/08/21 06:45:19;;;;;;;4.35;2.60;;;24.20;59.40;;;;;;4994737;28;20418;-66
2021/08/21 06:47:45;;;;;;;4.18;3.00;;;24.20;59.20;;;;;;4994552;28;21030;-66
2021/08/21 06:50:11;;;;;;;4.93;3.10;;;24.20;59.00;;;;;;4994403;28;20399;-67
2021/08/21 06:52:37;;;;;;;4.20;2.85;;;24.20;59.10;;;;;;4994113;28;20755;-62
2021/08/21 06:55:04;;;;;;;4.72;2.88;;;24.20;58.90;;;;;;4994319;28;20406;-67
2021/08/21 06:57:31;;;;;;;3.67;2.47;;;24.20;59.00;;;;;;4994296;28;20398;-67
2021/08/21 06:59:58;;;;;;;4.70;2.83;;;24.20;58.90;;;;;;4987858;28;21010;-66
2021/08/21 07:02:25;;;;;;;5.70;2.95;;;24.20;58.90;;;;;;4985055;28;20510;-66
2021/08/21 07:04:52;;;;;;;5.00;2.78;;;24.20;59.40;;;;;;4984248;28;20430;-65
2021/08/21 07:07:17;;;;;;;5.22;2.55;;;24.20;59.90;;;;;;4985263;28;20386;-66
2021/08/21 07:09:43;;;;;;;5.67;2.97;;;24.30;59.70;;;;;;4984639;28;20472;-65
2021/08/21 07:12:10;;;;;;;6.68;2.95;;;24.30;59.70;;;;;;4983579;28;21200;-65
2021/08/21 07:14:36;;;;;;;4.93;2.97;;;24.30;59.60;;;;;;4984164;28;20386;-66
2021/08/21 07:17:03;;;;;;;6.47;3.35;;;24.30;60.10;;;;;;4984808;28;20398;-67
2021/08/21 07:19:28;;;;;;;6.82;3.45;;;24.30;59.40;;;;;;4983431;28;20907;-66
2021/08/21 07:21:54;;;;;;;5.80;3.23;;;24.20;59.20;;;;;;4984074;28;20386;-67
2021/08/21 07:24:21;;;;;;;5.22;3.28;;;24.30;59.70;;;;;;4982863;28;20418;-66
2021/08/21 07:26:47;;;;;;;6.40;3.30;;;24.20;59.10;;;;;;4984274;28;20798;-65
2021/08/21 07:29:13;;;;;;;6.20;3.13;;;24.20;59.10;;;;;;4984687;28;20390;-66
2021/08/21 07:31:39;;;;;;;5.82;3.10;;;24.30;59.10;;;;;;4984768;28;20413;-64
2021/08/21 07:34:05;;;;;;;4.95;2.70;;;24.20;59.00;;;;;;4984679;28;20408;-65
2021/08/21 07:36:31;;;;;;;4.50;2.70;;;24.30;59.00;;;;;;4983974;28;20398;-65
2021/08/21 07:38:57;;;;;;;3.90;2.83;;;24.20;58.90;;;;;;4984635;28;20390;-67
2021/08/21 07:41:23;;;;;;;4.20;2.90;;;24.20;58.90;;;;;;4983938;28;20422;-65
2021/08/21 07:43:49;;;;;;;4.18;2.80;;;24.30;58.90;;;;;;4984505;28;20417;-63
2021/08/21 07:46:15;;;;;;;4.95;3.20;;;24.20;58.90;;;;;;4983448;28;20890;-66
2021/08/21 07:48:41;;;;;;;4.82;3.00;;;24.20;58.90;;;;;;4982854;28;20382;-66
2021/08/21 07:51:08;;;;;;;5.45;2.90;;;24.20;58.80;;;;;;4984018;28;20752;-64
2021/08/21 07:53:34;;;;;;;4.18;2.72;;;24.20;58.80;;;;;;4983206;28;20386;-65
2021/08/21 07:56:05;;;;;;;3.47;2.72;;;24.20;58.80;;;;;;4983503;28;20468;-67
2021/08/21 07:58:33;;;;;;;4.22;2.95;;;24.20;58.80;;;;;;4982792;28;20447;-67
2021/08/21 08:00:59;;;;;;;4.05;2.72;;;24.20;58.80;;;;;;4984228;28;20402;-66
2021/08/21 08:03:25;;;;;;;3.28;2.70;;;24.20;58.80;;;;;;5015789;28;20383;-66
2021/08/21 08:05:51;;;;;;;4.38;2.70;;;24.30;58.80;;;;;;4983854;28;20826;-65
2021/08/21 08:08:16;;;;;;;3.47;2.60;;;24.30;58.70;;;;;;4983273;28;20406;-66
2021/08/21 08:10:42;;;;;;;3.40;2.80;;;24.30;58.70;;;;;;4983517;28;20425;-65
2021/08/21 08:13:09;;;;;;;3.83;2.63;;;24.20;58.70;;;;;;4983741;28;20535;-65
2021/08/21 08:15:36;;;;;;;3.35;2.47;;;24.30;58.70;;;;;;4983756;28;20406;-66
2021/08/21 08:18:02;;;;;;;4.00;2.55;;;24.30;58.70;;;;;;4982976;28;20538;-66
2021/08/21 08:20:28;;;;;;;3.15;2.60;;;24.30;58.70;;;;;;4983056;28;20449;-65
2021/08/21 08:22:54;;;;;;;2.92;2.50;;;24.30;58.70;;;;;;4983615;28;20409;-66
2021/08/21 08:25:21;;;;;;;3.47;2.60;;;24.30;58.70;;;;;;4983596;28;20803;-66
2021/08/21 08:27:47;;;;;;;3.88;2.72;;;24.30;58.60;;;;;;4983538;28;20493;-63
2021/08/21 08:30:13;;;;;;;3.50;2.55;;;24.30;58.60;;;;;;4982079;28;20406;-66
2021/08/21 08:32:39;;;;;;;3.63;2.95;;;24.30;58.70;;;;;;4982955;28;20399;-66
2021/08/21 08:35:05;;;;;;;3.50;2.55;;;24.30;58.60;;;;;;4983671;28;20402;-65
2021/08/21 08:37:31;;;;;;;3.50;2.70;;;24.30;58.60;;;;;;4983461;28;20422;-65
2021/08/21 08:39:57;;;;;;;3.35;2.63;;;24.30;58.70;;;;;;4983342;28;20444;-66
2021/08/21 08:42:23;;;;;;;3.42;2.60;;;24.30;58.60;;;;;;4983322;28;20505;-66
2021/08/21 08:44:49;;;;;;;3.20;2.53;;;24.30;58.60;;;;;;4982964;28;20791;-65
2021/08/21 08:47:16;;;;;;;3.87;2.83;;;24.30;58.60;;;;;;4983335;28;20421;-66
2021/08/21 08:49:46;;;;;;;4.20;2.80;;;24.30;58.70;;;;;;4983284;28;20577;-65
2021/08/21 08:52:12;;;;;;;3.40;2.58;;;24.30;58.70;;;;;;4983078;28;20394;-66
2021/08/21 08:54:39;;;;;;;3.97;2.78;;;24.30;58.70;;;;;;4981402;28;20406;-65
2021/08/21 08:57:05;;;;;;;2.65;2.45;;;24.30;58.70;;;;;;4981874;28;20740;-66
2021/08/21 08:59:33;;;;;;;3.50;2.60;;;24.30;58.70;;;;;;4983167;28;20405;-66
2021/08/21 09:02:00;;;;;;;3.38;2.83;;;24.30;58.70;;;;;;4983118;28;20396;-65
2021/08/21 09:04:26;;;;;;;3.33;2.80;;;24.30;58.70;;;;;;4983289;28;20422;-66
2021/08/21 09:06:53;;;;;;;3.38;2.60;;;24.30;58.70;;;;;;4982369;28;20471;-66
2021/08/21 09:09:25;;;;;;;3.40;2.60;;;24.30;58.80;;;;;;4983075;28;20405;-65
2021/08/21 09:11:53;;;;;;;3.03;2.33;;;24.30;58.80;;;;;;4983062;28;20390;-64
2021/08/21 09:14:30;;;;;;;2.83;2.53;;;24.30;59.30;;;;;;4983139;28;20455;-65
2021/08/21 09:17:17;;;;;;;3.60;2.58;;;24.30;58.70;;;;;;4982693;28;20413;-65
2021/08/21 09:19:43;;;;;;;3.45;2.78;;;24.30;58.70;;;;;;4984720;28;20374;-66
2021/08/21 09:22:11;;;;;;;3.10;2.30;;;24.30;58.70;;;;;;4986112;28;20395;-64
2021/08/21 09:24:38;;;;;;;2.92;2.50;;;24.30;58.70;;;;;;4986366;28;20881;-66
2021/08/21 09:27:13;;;;;;;6.43;2.80;;;24.30;59.30;;;;;;4986656;28;20426;-67
2021/08/21 09:29:39;;;;;;;4.10;2.70;;;24.30;58.80;;;;;;5017824;28;20433;-65
2021/08/21 09:32:07;;;;;;;3.83;3.00;;;24.30;58.90;;;;;;4986914;28;20444;-66
2021/08/21 09:34:33;;;;;;;3.50;2.63;;;24.30;58.90;;;;;;4986391;28;20456;-65
2021/08/21 09:37:00;;;;;;;3.63;2.85;;;24.30;58.90;;;;;;4986158;28;20501;-65
2021/08/21 09:39:42;;;;;;;3.75;2.67;;;24.30;58.90;;;;;;4986672;28;20909;-67
2021/08/21 09:42:09;;;;;;;4.60;2.92;;;24.40;59.10;;;;;;4983586;28;20422;-64
2021/08/21 09:44:38;;;;;;;3.58;2.65;;;24.30;59.60;;;;;;4983285;28;20778;-66
2021/08/21 09:47:10;;;;;;;4.50;3.10;;;24.40;59.30;;;;;;4983126;28;20441;-66
2021/08/21 09:49:35;;;;;;;4.30;3.00;;;24.40;60.10;;;;;;4983894;28;20426;-65
2021/08/21 09:52:13;;;;;;;5.68;3.05;;;24.50;59.60;;;;;;4984825;28;20402;-66
2021/08/21 09:54:40;;;;;;;3.88;2.83;;;24.40;59.80;;;;;;4984455;28;20459;-63
2021/08/21 09:57:06;;;;;;;3.83;3.00;;;24.40;59.90;;;;;;4984193;28;20422;-66
2021/08/21 09:59:42;;;;;;;3.60;3.00;;;24.50;59.70;;;;;;4985478;28;20413;-63
2021/08/21 10:02:10;;;;;;;3.88;2.88;;;24.50;59.60;;;;;;4986205;28;20406;-64
2021/08/21 10:04:43;;;;;;;4.15;2.90;;;24.40;59.30;;;;;;4985939;28;20422;-65
2021/08/21 10:07:15;;;;;;;3.90;3.05;;;24.40;59.60;;;;;;4986091;28;20469;-66
2021/08/21 10:09:42;;;;;;;3.83;3.00;;;24.40;59.20;;;;;;4985869;28;21153;-66
2021/08/21 10:12:12;;;;;;;4.53;2.65;;;24.40;59.30;;;;;;4986674;28;20447;-65
2021/08/21 10:14:44;;;;;;;5.10;2.90;;;24.40;59.30;;;;;;4985481;28;20939;-65
2021/08/21 10:17:10;;;;;;;3.83;2.90;;;24.40;59.20;;;;;;4985753;28;20406;-66
2021/08/21 10:19:40;;;;;;;4.30;3.00;;;24.40;59.30;;;;;;4986313;28;20401;-66
2021/08/21 10:22:08;;;;;;;3.50;2.88;;;24.40;59.80;;;;;;4985826;28;20426;-66
2021/08/21 10:24:42;;;;;;;3.58;2.80;;;24.50;59.40;;;;;;4985766;28;20450;-65
2021/08/21 10:27:13;;;;;;;3.42;2.63;;;24.40;59.10;;;;;;4983214;28;20449;-65
2021/08/21 10:29:39;;;;;;;3.30;2.83;;;24.40;59.10;;;;;;4984968;28;20981;-65
2021/08/21 10:32:30;;;;;;;3.55;2.63;;;24.40;59.00;;;;;;4985810;28;20399;-65
2021/08/21 10:34:55;;;;;;;3.35;2.67;;;24.50;59.30;;;;;;4985206;28;20405;-65
2021/08/21 10:37:45;;;;;;;3.47;2.67;;;24.40;59.20;;;;;;4985461;28;20481;-66
2021/08/21 10:40:28;;;;;;;3.00;2.53;;;24.50;59.20;;;;;;4985186;28;20840;-66
2021/08/21 10:43:03;;;;;;;2.83;2.53;;;24.50;59.10;;;;;;4984697;28;20419;-63
2021/08/21 10:45:42;;;;;;;3.10;2.53;;;24.50;59.10;;;;;;4985232;28;20898;-66
2021/08/21 10:48:11;;;;;;;3.75;2.60;;;24.50;59.10;;;;;;4985177;28;20937;-66
2021/08/21 10:50:44;;;;;;;3.83;2.67;;;24.40;59.10;;;;;;4985056;28;20422;-66
2021/08/21 10:53:20;;;;;;;4.88;2.50;;;24.50;59.10;;;;;;4985581;28;20819;-66
2021/08/21 10:55:46;;;;;;;4.00;2.50;;;24.50;59.10;;;;;;4985115;28;20413;-66
2021/08/21 10:58:16;;;;;;;3.00;2.50;;;24.40;59.10;;;;;;4985428;28;20383;-66
2021/08/21 11:01:03;;;;;;;3.85;2.65;;;24.40;59.10;;;;;;4984543;28;20406;-62
2021/08/21 11:03:28;;;;;;;3.83;2.58;;;24.50;59.20;;;;;;4985029;28;20399;-66
2021/08/21 11:06:03;;;;;;;3.27;2.73;;;24.50;59.20;;;;;;4984980;28;20438;-65
2021/08/21 11:08:31;;;;;;;3.30;2.58;;;24.50;59.10;;;;;;4985028;28;20398;-66
2021/08/21 11:11:09;;;;;;;3.40;2.67;;;24.50;59.10;;;;;;4984623;28;20395;-65
2021/08/21 11:16:44;;;;;;;3.47;2.40;;;24.50;59.10;;;;;;4985081;28;20418;-67
2021/08/21 11:19:11;;;;;;;4.50;2.55;;;24.50;59.10;;;;;;4984818;28;20808;-64
2021/08/21 11:21:38;;;;;;;3.72;2.47;;;24.50;59.00;;;;;;4985131;28;20390;-67
2021/08/21 11:24:26;;;;;;;5.15;2.60;;;24.50;59.00;;;;;;4984512;28;20410;-68
2021/08/21 11:27:29;;;;;;;3.67;2.70;;;24.50;59.10;;;;;;4986758;28;20879;-66
2021/08/21 11:30:11;;;;;;;4.13;2.70;;;24.50;59.00;;;;;;4985834;28;20437;-65
2021/08/21 11:32:42;;;;;;;4.00;2.30;;;24.50;58.90;;;;;;4984534;28;20395;-65
2021/08/21 11:35:08;;;;;;;6.53;2.63;;;24.50;59.00;;;;;;4982891;28;20910;-66
2021/08/21 11:37:34;;;;;;;6.10;2.50;;;24.50;59.00;;;;;;4984585;28;20401;-65
2021/08/21 11:40:00;;;;;;;5.43;2.60;;;24.50;58.90;;;;;;4984086;28;20379;-66
2021/08/21 11:42:48;;;;;;;4.97;2.72;;;24.50;59.00;;;;;;4983018;28;20488;-63
2021/08/21 11:45:14;;;;;;;3.15;2.42;;;24.50;58.90;;;;;;4983219;28;20422;-66
2021/08/21 11:47:40;;;;;;;5.15;2.55;;;24.50;58.70;;;;;;4984134;28;20457;-66
2021/08/21 11:50:28;;;;;;;3.42;2.20;;;24.50;58.60;;;;;;4983805;28;20891;-65
2021/08/21 11:52:56;;;;;;;3.30;2.70;;;24.50;58.50;;;;;;4982537;28;20486;-65
2021/08/21 11:55:24;;;;;;;3.10;2.40;;;24.50;58.50;;;;;;4984342;28;20974;-62
2021/08/21 11:57:50;;;;;;;3.13;2.37;;;24.50;58.50;;;;;;4984252;28;20487;-66
2021/08/21 12:00:22;;;;;;;3.30;2.25;;;24.50;58.50;;;;;;4983899;28;20398;-64
2021/08/21 12:02:56;;;;;;;3.33;2.40;;;24.50;58.50;;;;;;4983638;28;20404;-63
2021/08/21 12:05:40;;;;;;;3.03;2.50;;;24.50;58.60;;;;;;4983967;28;20414;-65
2021/08/21 12:08:23;;;;;;;2.72;2.40;;;24.60;58.60;;;;;;4983783;28;20405;-65
2021/08/21 12:10:54;;;;;;;3.10;2.25;;;24.60;58.60;;;;;;4998149;28;20481;-67
2021/08/21 12:13:28;;;;;;;3.17;2.30;;;24.60;58.50;;;;;;4984135;28;20409;-65
2021/08/21 12:15:56;;;;;;;4.35;2.28;;;24.60;58.60;;;;;;4983422;28;20402;-63
2021/08/21 12:18:25;;;;;;;3.50;2.30;;;24.60;58.70;;;;;;4983725;28;20398;-65
2021/08/21 12:20:52;;;;;;;3.55;2.30;;;24.60;58.70;;;;;;4983234;28;20395;-66
2021/08/21 12:23:18;;;;;;;3.47;2.30;;;24.60;58.70;;;;;;4982104;28;20763;-65
2021/08/21 12:25:49;;;;;;;3.00;2.50;;;24.60;58.70;;;;;;4982768;28;20426;-63
2021/08/21 12:28:18;;;;;;;3.00;2.33;;;24.60;58.60;;;;;;4981868;28;20768;-66
2021/08/21 12:30:56;;;;;;;2.72;2.22;;;24.60;58.60;;;;;;4981622;28;20382;-63
2021/08/21 12:33:49;;;;;;;3.47;2.20;;;24.70;58.50;;;;;;4982337;28;20386;-65
2021/08/21 12:36:25;;;;;;;3.35;2.38;;;24.70;58.50;;;;;;4982723;28;20743;-66
2021/08/21 12:39:01;;;;;;;2.67;2.22;;;24.70;58.50;;;;;;4981502;28;20803;-63
2021/08/21 12:41:29;;;;;;;3.17;2.30;;;24.70;58.50;;;;;;4980079;28;20776;-66
2021/08/21 12:44:05;;;;;;;3.60;2.60;;;24.70;58.60;;;;;;4979139;28;20398;-66
2021/08/21 12:46:31;;;;;;;3.30;2.37;;;24.70;58.50;;;;;;4980598;28;20407;-63
2021/08/21 12:49:09;;;;;;;3.30;2.53;;;24.70;58.50;;;;;;4980505;28;20482;-67
2021/08/21 12:51:37;;;;;;;3.45;2.35;;;24.70;58.40;;;;;;4980815;28;20414;-62
2021/08/21 12:54:09;;;;;;;3.13;2.30;;;24.70;58.50;;;;;;4980324;28;20938;-65
2021/08/21 12:56:35;;;;;;;3.50;2.50;;;24.70;58.40;;;;;;4980166;28;20417;-63